createdAt,value
2023-03-07T00:03:47.194Z,4.24
2023-03-07T00:08:50.325Z,4.42
2023-03-07T00:13:52.778Z,4.58
2023-03-07T00:18:55.574Z,4.52
2023-03-07T00:23:57.307Z,4.63
2023-03-07T00:28:58.880Z,4.54
2023-03-07T00:34:00.581Z,4.58
2023-03-07T00:39:02.260Z,4.64
2023-03-07T00:44:04.112Z,4.47
2023-03-07T00:49:06.222Z,4.46
2023-03-07T00:54:07.817Z,4.43
2023-03-07T00:59:10.869Z,4.54
2023-03-07T01:04:12.860Z,4.57
2023-03-07T01:09:14.645Z,4.59
2023-03-07T01:14:16.343Z,4.51
2023-03-07T01:19:18.082Z,4.48
2023-03-07T01:24:21.133Z,4.50
2023-03-07T01:29:22.986Z,4.59
2023-03-07T01:34:24.728Z,4.68
2023-03-07T01:39:27.266Z,4.53
2023-03-07T01:45:03.844Z,4.65
2023-03-07T01:50:20.676Z,4.63
2023-03-07T01:55:33.254Z,4.63
2023-03-07T02:00:45.823Z,4.73
2023-03-07T02:05:51.499Z,4.63
2023-03-07T02:10:54.169Z,4.68
2023-03-07T02:15:57.650Z,4.73
2023-03-07T02:21:09.395Z,4.63
2023-03-07T02:26:42.360Z,4.74
2023-03-07T02:31:44.859Z,4.82
2023-03-07T02:36:48.212Z,4.98
2023-03-07T02:41:55.812Z,4.80
2023-03-07T02:47:09.986Z,4.69
2023-03-07T02:52:11.941Z,4.67
2023-03-07T02:57:15.276Z,4.69
2023-03-07T03:02:17.206Z,4.68
2023-03-07T03:07:19.762Z,4.70
2023-03-07T03:12:21.697Z,4.72
2023-03-07T03:17:24.070Z,4.61
2023-03-07T03:22:25.821Z,4.68
2023-03-07T03:27:27.703Z,4.78
2023-03-07T03:32:29.498Z,4.61
2023-03-07T03:37:32.146Z,4.53
2023-03-07T03:42:34.061Z,4.54
2023-03-07T03:47:37.915Z,4.76
2023-03-07T03:52:39.976Z,4.44
2023-03-07T03:57:41.785Z,4.43
2023-03-07T04:02:43.714Z,4.48
2023-03-07T04:07:52.020Z,4.17
2023-03-07T04:12:54.190Z,4.12
2023-03-07T04:17:55.872Z,4.08
2023-03-07T04:22:57.714Z,3.98
2023-03-07T04:27:59.648Z,3.92
2023-03-07T04:33:01.517Z,4.11
2023-03-07T04:38:03.312Z,4.01
2023-03-07T04:43:05.481Z,4.07
2023-03-07T04:48:07.896Z,4.66
2023-03-07T04:53:11.886Z,4.31
2023-03-07T04:58:15.821Z,4.00
2023-03-07T05:03:18.213Z,4.20
2023-03-07T05:08:21.539Z,3.79
2023-03-07T05:13:24.413Z,3.51
2023-03-07T05:18:27.084Z,3.63
2023-03-07T05:23:30.539Z,3.66
2023-03-07T05:28:32.407Z,3.69
2023-03-07T05:33:34.160Z,3.71
2023-03-07T05:38:35.992Z,3.78
2023-03-07T05:43:37.877Z,3.68
2023-03-07T05:48:39.820Z,3.71
2023-03-07T05:53:41.903Z,3.69
2023-03-07T05:58:43.791Z,3.63
2023-03-07T06:03:47.767Z,3.65
2023-03-07T06:08:49.590Z,3.49
2023-03-07T06:13:52.440Z,3.31
2023-03-07T06:18:54.185Z,3.61
2023-03-07T06:23:56.400Z,3.65
2023-03-07T06:28:58.279Z,3.54
2023-03-07T06:34:00.934Z,3.67
2023-03-07T06:39:05.428Z,3.80
2023-03-07T06:44:10.939Z,3.90
2023-03-07T06:49:13.269Z,3.90
2023-03-07T06:54:15.131Z,3.92
2023-03-07T06:59:17.467Z,3.86
2023-03-07T07:04:20.586Z,3.90
2023-03-07T07:09:23.788Z,3.79
2023-03-07T07:14:26.050Z,3.71
2023-03-07T07:19:28.100Z,3.69
2023-03-07T07:24:31.164Z,3.81
2023-03-07T07:29:33.298Z,3.82
2023-03-07T07:34:35.852Z,3.82
2023-03-07T07:39:41.428Z,3.67
2023-03-07T07:44:43.790Z,3.65
2023-03-07T07:49:46.742Z,3.72
2023-03-07T07:54:49.327Z,3.78
2023-03-07T07:59:51.062Z,3.79
2023-03-07T08:04:52.912Z,3.97
2023-03-07T08:09:54.540Z,4.04
2023-03-07T08:14:56.207Z,3.96
2023-03-07T08:20:01.780Z,3.84
2023-03-07T08:25:08.096Z,4.14
2023-03-07T08:30:10.483Z,4.44
2023-03-07T08:35:12.128Z,4.26
2023-03-07T08:40:14.611Z,4.13
2023-03-07T08:45:16.705Z,4.14
2023-03-07T08:50:18.453Z,4.01
2023-03-07T08:55:20.480Z,3.84
2023-03-07T09:00:22.283Z,3.90
2023-03-07T09:05:25.277Z,3.95
2023-03-07T09:10:27.383Z,3.74
2023-03-07T09:15:29.159Z,3.76
2023-03-07T09:20:30.770Z,3.91
2023-03-07T09:25:32.893Z,4.07
2023-03-07T09:30:34.461Z,4.22
2023-03-07T09:35:37.998Z,4.12
2023-03-07T09:40:39.802Z,4.16
2023-03-07T09:46:03.925Z,4.25
2023-03-07T09:51:25.506Z,4.16
2023-03-07T09:56:33.098Z,4.18
2023-03-07T10:01:38.047Z,4.04
2023-03-07T10:06:42.568Z,3.92
2023-03-07T10:12:18.388Z,4.10
2023-03-07T10:17:44.395Z,4.11
2023-03-07T10:22:59.456Z,4.24
2023-03-07T10:28:19.054Z,4.17
2023-03-07T10:33:21.180Z,4.38
2023-03-07T10:38:36.227Z,4.02
2023-03-07T10:43:39.450Z,4.18
2023-03-07T10:48:48.973Z,3.97
2023-03-07T10:53:50.627Z,3.83
2023-03-07T10:59:10.607Z,3.98
2023-03-07T11:04:24.261Z,4.10
2023-03-07T11:09:26.998Z,4.04
2023-03-07T11:14:29.340Z,3.89
2023-03-07T11:19:38.776Z,3.77
2023-03-07T11:24:40.407Z,3.76
2023-03-07T11:29:42.058Z,3.70
2023-03-07T11:34:52.426Z,3.73
2023-03-07T11:40:00.420Z,3.70
2023-03-07T11:45:24.858Z,3.55
2023-03-07T11:50:30.175Z,3.54
2023-03-07T11:55:47.410Z,3.70
2023-03-07T12:01:13.208Z,3.82
2023-03-07T12:06:52.145Z,3.71
2023-03-07T12:12:18.196Z,3.57
2023-03-07T12:17:53.723Z,3.45
2023-03-07T12:23:08.397Z,3.33
2023-03-07T12:28:16.071Z,3.29
2023-03-07T12:33:27.616Z,3.22
2023-03-07T12:39:19.885Z,3.34
2023-03-07T12:44:32.307Z,3.28
2023-03-07T12:49:50.362Z,2.79
2023-03-07T12:55:06.901Z,2.75
2023-03-07T13:00:12.239Z,2.97
2023-03-07T13:05:21.082Z,3.10
2023-03-07T13:10:24.642Z,2.99
2023-03-07T13:15:38.550Z,3.01
2023-03-07T13:20:42.176Z,2.92
2023-03-07T13:25:51.720Z,3.05
2023-03-07T13:31:17.539Z,3.33
2023-03-07T13:36:38.613Z,3.42
2023-03-07T13:41:49.496Z,3.65
2023-03-07T13:46:54.247Z,3.88
2023-03-07T13:52:20.765Z,4.03
2023-03-07T13:57:27.126Z,3.98
2023-03-07T14:02:29.680Z,4.03
2023-03-07T14:07:37.286Z,4.18
2023-03-07T14:13:05.213Z,4.12
2023-03-07T14:18:45.027Z,4.26
2023-03-07T14:24:10.855Z,4.26
2023-03-07T14:29:24.222Z,4.38
2023-03-07T14:34:32.592Z,4.38
2023-03-07T14:39:52.704Z,4.46
2023-03-07T14:45:23.482Z,4.37
2023-03-07T14:50:31.077Z,4.44
2023-03-07T14:55:38.869Z,4.42
2023-03-07T15:00:40.483Z,4.41
2023-03-07T15:05:57.323Z,4.51
2023-03-07T15:11:30.448Z,4.55
2023-03-07T15:16:34.803Z,4.58
2023-03-07T15:21:43.570Z,4.67
2023-03-07T15:26:54.195Z,4.63
2023-03-07T15:32:07.181Z,4.82
2023-03-07T15:37:26.995Z,4.74
2023-03-07T15:42:29.920Z,4.56
2023-03-07T15:47:32.489Z,4.62
2023-03-07T15:52:37.587Z,4.39
2023-03-07T15:57:50.602Z,4.80
2023-03-07T16:02:52.561Z,4.74
2023-03-07T16:07:57.017Z,4.60
2023-03-07T16:13:00.745Z,4.51
2023-03-07T16:18:03.394Z,4.45
2023-03-07T16:23:11.291Z,4.55
2023-03-07T16:28:14.031Z,4.71
2023-03-07T16:33:16.689Z,4.72
2023-03-07T16:38:18.372Z,4.68
2023-03-07T16:43:32.889Z,4.57
2023-03-07T16:48:36.360Z,4.68
2023-03-07T16:53:38.003Z,4.39
2023-03-07T16:58:41.107Z,4.57
2023-03-07T17:03:44.381Z,4.47
2023-03-07T17:08:46.087Z,4.31
2023-03-07T17:13:50.756Z,4.25
2023-03-07T17:18:53.231Z,4.31
2023-03-07T17:23:55.098Z,4.31
2023-03-07T17:29:00.441Z,4.30
2023-03-07T17:34:02.130Z,4.27
2023-03-07T17:39:04.088Z,4.40
2023-03-07T17:44:05.771Z,4.34
2023-03-07T17:49:07.564Z,4.40
2023-03-07T17:54:10.131Z,4.23
2023-03-07T17:59:12.054Z,4.20
2023-03-07T18:04:13.625Z,4.01
2023-03-07T18:09:16.453Z,3.96
2023-03-07T18:14:18.874Z,4.01
2023-03-07T18:19:26.826Z,4.09
2023-03-07T18:24:32.101Z,4.04
2023-03-07T18:29:34.451Z,4.00
2023-03-07T18:34:36.121Z,3.98
2023-03-07T18:39:37.817Z,4.01
2023-03-07T18:44:44.195Z,4.02
2023-03-07T18:49:51.764Z,4.02
2023-03-07T18:54:55.230Z,4.00
2023-03-07T19:00:16.756Z,3.97
2023-03-07T19:05:27.142Z,3.90
2023-03-07T19:10:48.917Z,3.82
2023-03-07T19:16:29.797Z,3.65
2023-03-07T19:21:44.594Z,3.61
2023-03-07T19:26:58.022Z,3.71
2023-03-07T19:32:01.566Z,3.61
2023-03-07T19:37:04.545Z,3.44
2023-03-07T19:42:07.239Z,3.63
2023-03-07T19:47:21.646Z,3.68
2023-03-07T19:52:52.169Z,3.51
2023-03-07T19:58:17.324Z,3.51
2023-03-07T20:03:29.779Z,3.53
2023-03-07T20:08:54.252Z,3.56
2023-03-07T20:13:59.710Z,3.59
2023-03-07T20:19:06.380Z,3.61
2023-03-07T20:24:39.765Z,3.66
2023-03-07T20:29:42.854Z,3.64
2023-03-07T20:34:46.251Z,3.58
2023-03-07T20:39:48.699Z,3.66
2023-03-07T20:45:03.737Z,3.63
2023-03-07T20:50:06.122Z,3.66
2023-03-07T20:55:08.236Z,3.64
2023-03-07T21:00:10.605Z,3.60
2023-03-07T21:05:12.272Z,3.57
2023-03-07T21:10:14.116Z,3.59
2023-03-07T21:15:16.029Z,3.61
2023-03-07T21:20:17.796Z,3.64
2023-03-07T21:25:19.511Z,3.66
2023-03-07T21:30:21.177Z,3.63
2023-03-07T21:35:23.847Z,3.63
2023-03-07T21:40:25.571Z,3.59
2023-03-07T21:45:27.321Z,3.50
2023-03-07T21:50:29.039Z,3.37
2023-03-07T21:55:30.682Z,3.41
2023-03-07T22:00:32.318Z,3.80
2023-03-07T22:05:33.962Z,3.79
2023-03-07T22:10:35.704Z,3.46
2023-03-07T22:15:40.353Z,3.49
2023-03-07T22:20:41.990Z,3.47
2023-03-07T22:25:44.487Z,3.45
2023-03-07T22:30:49.602Z,3.37
2023-03-07T22:35:58.942Z,3.35
2023-03-07T22:41:02.350Z,3.29
2023-03-07T22:46:05.466Z,2.99
2023-03-07T22:51:15.301Z,2.96
2023-03-07T22:56:20.826Z,2.98
2023-03-07T23:01:25.374Z,2.96
2023-03-07T23:06:32.100Z,2.92
2023-03-07T23:11:34.579Z,2.98
2023-03-07T23:16:39.500Z,2.89
2023-03-07T23:21:41.254Z,2.84
2023-03-07T23:26:43.014Z,2.85
2023-03-07T23:31:44.723Z,2.78
2023-03-07T23:36:46.629Z,2.60
2023-03-07T23:41:48.331Z,2.56
2023-03-07T23:46:50.103Z,2.59
2023-03-07T23:51:51.763Z,2.54
2023-03-07T23:56:53.377Z,2.63
